12:59
Airports
History
Links
Donate
Help keep this website running!
PayPal
Bitcoin
Information on this page is community maintained and may be outdated or inaccurate and is intended for reference only or PC simulator navigating.
Always use approved charts for navigating.
VEGY
GAYA
GAYA (VEGY)
Gaya, Bihar, India (823004)
(C)
Lat/Lng:24° 44' 39.51" N / 84° 57' 4.23" E
24.744309 / 84.951175
Elevation:380'ft 116mMSL
ID / ICAO:VEGY
Runways:1
Longest:(10-28) 2,269.2m 7,445ft Asphalt
Controlled:Yes
Distance To
Airport ID:
Airport Radio Frequencies
Tower: 123.5
Nearby VORs <50NM
Nearby NDBs
METARUpdated 07-23-17 12:00 GMT
Altimeter: 29.44
Visibility: 2.2 statute miles
Wind: 0 knots (000°)
Temp: 29°c 84°f
Humidity: 89.0%

METAR: VEGY 231200Z 00000KT 3500 BR BKN016 BKN100 29/27 Q0997

(Powered by phpweather)
Runway 10 / 28
Dimensions:2269.2 x 45.1m 7445' x 148'ft
Surface:Asphalt
Edge Lights:High intensity
Runway 10 [A]Runway 28 [B]
Heading:103°TH 283°TH
Lat:
Lng:
24° 44' 48.31"N
84° 56' 24.79"E
24° 44' 30.71"N
84° 57' 43.67"E
ALS:SALSSALS
TDZ:Yes, lighted
User Notes and Comments
Google Map
Nearby Airports
(C) PATNA 59.1 NM
VEPT (WX) N
(U) DALTONGANJ 73.6 NM
VE54 SW 227°
(U) GIRIDIH 92.1 NM
VE41 ESE 113°
(U) MUZAFFARPUR 97.6 NM
VEMZ NNE 13°
(C) BIRSA MUNDA 101.5 NM
VERC (WX) SSE 166°
(U) BOKARO 107.2 NM
VEBK SE 135°
(U) DHANBAD 112.1 NM
VEDB SE 124°
VFR Chart
Flight Planning at SkyVector.com